Terminal Aerodrome Forecast
Issued by NWS Sioux Falls, SD

Home | Current Version | Previous Version | Text Only | Print | Product List | Glossary On
Versions: 1 2 3 4 5 6 7 8 9 10 11 12 13
565
FTUS43 KFSD 251132
TAFHON
TAF
KHON 251132Z 2512/2612 22005KT P6SM BKN090
     FM251700 21009KT P6SM BKN070
     FM260600 20005KT P6SM OVC050
     FM261000 26007KT P6SM BKN090=

USA.gov is the U.S. government's official web portal to all federal, state and local government web resources and services.